createdAt,value
2023-04-21T00:02:17.485Z,11.13
2023-04-21T00:04:46.029Z,16.20
2023-04-21T00:07:14.795Z,15.65
2023-04-21T00:09:42.208Z,20.00
2023-04-21T00:12:10.561Z,13.38
2023-04-21T00:14:39.932Z,27.17
2023-04-21T00:17:07.193Z,23.90
2023-04-21T00:19:35.260Z,16.25
2023-04-21T00:22:04.535Z,18.17
2023-04-21T00:24:31.760Z,25.90
2023-04-21T00:26:59.145Z,27.35
2023-04-21T00:29:26.452Z,15.68
2023-04-21T00:31:53.853Z,22.63
2023-04-21T00:34:21.454Z,18.08
2023-04-21T00:36:48.665Z,12.70
2023-04-21T00:39:15.950Z,17.23
2023-04-21T00:44:24.618Z,17.77
2023-04-21T00:46:51.894Z,16.23
2023-04-21T00:49:19.257Z,15.50
2023-04-21T00:51:46.685Z,18.23
2023-04-21T00:54:14.070Z,11.77
2023-04-21T00:56:41.324Z,15.82
2023-04-21T00:59:09.112Z,22.23
2023-04-21T01:01:36.645Z,15.98
2023-04-21T01:04:04.589Z,13.50
2023-04-21T01:06:34.803Z,10.80
2023-04-21T01:09:03.191Z,17.33
2023-04-21T01:11:31.712Z,15.23
2023-04-21T01:13:59.037Z,15.15
2023-04-21T01:16:26.999Z,18.48
2023-04-21T01:18:54.387Z,18.40
2023-04-21T01:21:22.082Z,17.63
2023-04-21T01:23:49.436Z,23.02
2023-04-21T01:26:23.060Z,24.40
2023-04-21T01:28:50.290Z,22.33
2023-04-21T01:31:18.304Z,25.17
2023-04-21T01:33:45.704Z,15.95
2023-04-21T01:36:13.319Z,19.13
2023-04-21T01:38:41.170Z,22.77
2023-04-21T01:41:08.929Z,12.18
2023-04-21T01:43:37.164Z,16.67
2023-04-21T01:46:05.479Z,14.25
2023-04-21T01:48:32.868Z,20.35
2023-04-21T01:51:00.144Z,16.48
2023-04-21T01:53:27.376Z,13.88
2023-04-21T01:55:54.580Z,28.17
2023-04-21T01:58:21.993Z,26.02
2023-04-21T02:00:49.294Z,16.30
2023-04-21T02:03:16.635Z,20.80
2023-04-21T02:05:44.288Z,17.13
2023-04-21T02:08:11.580Z,19.83
2023-04-21T02:10:38.805Z,22.77
2023-04-21T02:13:06.405Z,19.25
2023-04-21T02:15:33.867Z,14.38
2023-04-21T02:18:01.281Z,17.85
2023-04-21T02:20:29.052Z,21.13
2023-04-21T02:22:56.302Z,10.35
2023-04-21T02:25:23.538Z,16.35
2023-04-21T02:27:50.837Z,21.02
2023-04-21T02:30:18.123Z,18.27
2023-04-21T02:32:45.561Z,13.57
2023-04-21T02:35:13.003Z,12.43
2023-04-21T02:37:40.366Z,10.63
2023-04-21T02:40:08.258Z,10.85
2023-04-21T02:42:35.665Z,16.35
2023-04-21T02:45:03.013Z,12.50
2023-04-21T02:47:30.581Z,14.35
2023-04-21T02:49:57.854Z,18.10
2023-04-21T02:52:25.130Z,16.88
2023-04-21T02:54:52.412Z,18.98
2023-04-21T02:57:19.698Z,10.35
2023-04-21T02:59:46.913Z,11.05
2023-04-21T03:02:14.382Z,12.07
2023-04-21T03:04:41.689Z,15.27
2023-04-21T03:07:13.712Z,10.48
2023-04-21T03:09:41.196Z,9.20
2023-04-21T03:12:08.496Z,8.80
2023-04-21T03:14:36.108Z,13.48
2023-04-21T03:17:03.393Z,10.00
2023-04-21T03:19:31.188Z,17.45
2023-04-21T03:21:58.392Z,9.98
2023-04-21T03:24:26.272Z,9.02
2023-04-21T03:26:53.506Z,10.43
2023-04-21T03:29:20.962Z,11.65
2023-04-21T03:31:48.343Z,11.82
2023-04-21T03:34:15.935Z,13.30
2023-04-21T03:36:43.279Z,13.68
2023-04-21T03:39:19.794Z,13.48
2023-04-21T03:41:48.189Z,14.43
2023-04-21T03:44:15.565Z,17.42
2023-04-21T03:46:42.791Z,17.42
2023-04-21T03:49:10.177Z,13.98
2023-04-21T03:51:37.841Z,16.40
2023-04-21T03:54:05.092Z,11.93
2023-04-21T03:56:32.696Z,14.95
2023-04-21T03:58:59.939Z,16.90
2023-04-21T04:01:27.172Z,15.15
2023-04-21T04:03:54.582Z,9.82
2023-04-21T04:06:21.982Z,13.32
2023-04-21T04:08:49.202Z,10.05
2023-04-21T04:11:16.564Z,9.95
2023-04-21T04:13:44.297Z,7.88
2023-04-21T04:16:11.670Z,9.50
2023-04-21T04:18:38.976Z,8.68
2023-04-21T04:21:07.522Z,5.75
2023-04-21T04:23:35.316Z,8.45
2023-04-21T04:26:05.654Z,7.72
2023-04-21T04:28:33.795Z,11.43
2023-04-21T04:31:01.269Z,11.88
2023-04-21T04:33:29.089Z,7.25
2023-04-21T04:35:56.391Z,6.78
2023-04-21T04:38:23.694Z,11.63
2023-04-21T04:40:55.222Z,7.65
2023-04-21T04:43:22.984Z,9.20
2023-04-21T04:45:50.281Z,11.73
2023-04-21T04:48:17.612Z,9.70
2023-04-21T04:50:45.007Z,9.80
2023-04-21T04:53:12.268Z,9.48
2023-04-21T04:55:39.494Z,8.48
2023-04-21T04:58:06.933Z,14.85
2023-04-21T05:00:34.280Z,12.27
2023-04-21T05:03:01.617Z,17.13
2023-04-21T05:05:29.151Z,13.93
2023-04-21T05:07:57.338Z,16.77
2023-04-21T05:10:24.691Z,13.07
2023-04-21T05:12:52.048Z,12.38
2023-04-21T05:15:19.334Z,13.32
2023-04-21T05:17:46.709Z,20.65
2023-04-21T05:20:13.957Z,14.48
2023-04-21T05:22:41.255Z,25.92
2023-04-21T05:25:09.982Z,15.85
2023-04-21T05:27:37.465Z,16.02
2023-04-21T05:30:04.960Z,17.95
2023-04-21T05:32:32.901Z,16.20
2023-04-21T05:35:00.383Z,17.77
2023-04-21T05:37:27.781Z,18.83
2023-04-21T05:39:55.027Z,23.25
2023-04-21T05:42:22.304Z,18.27
2023-04-21T05:44:49.511Z,12.95
2023-04-21T05:47:16.743Z,28.05
2023-04-21T05:49:50.237Z,25.00
2023-04-21T05:52:17.968Z,17.42
2023-04-21T05:54:45.401Z,17.73
2023-04-21T05:57:12.725Z,16.85
2023-04-21T05:59:40.025Z,21.58
2023-04-21T06:02:07.766Z,27.15
2023-04-21T06:04:35.265Z,15.30
2023-04-21T06:07:09.772Z,19.45
2023-04-21T06:09:38.324Z,24.38
2023-04-21T06:12:06.131Z,30.25
2023-04-21T06:14:34.305Z,20.15
2023-04-21T06:17:01.558Z,15.43
2023-04-21T06:19:29.431Z,18.17
2023-04-21T06:21:57.143Z,17.63
2023-04-21T06:24:27.143Z,19.52
2023-04-21T06:26:54.373Z,16.02
2023-04-21T06:29:21.934Z,20.38
2023-04-21T06:31:49.392Z,18.73
2023-04-21T06:34:16.913Z,13.32
2023-04-21T06:36:44.498Z,12.15
2023-04-21T06:39:11.830Z,13.85
2023-04-21T06:41:39.224Z,20.92
2023-04-21T06:44:06.465Z,17.45
2023-04-21T06:46:34.535Z,15.57
2023-04-21T06:49:01.767Z,18.30
2023-04-21T06:51:29.306Z,20.30
2023-04-21T06:53:56.606Z,18.58
2023-04-21T06:56:23.849Z,18.25
2023-04-21T06:58:51.311Z,18.38
2023-04-21T07:01:18.669Z,14.20
2023-04-21T07:03:46.113Z,17.15
2023-04-21T07:06:13.399Z,14.15
2023-04-21T07:08:41.449Z,14.35
2023-04-21T07:11:08.760Z,19.75
2023-04-21T07:13:36.539Z,13.27
2023-04-21T07:16:05.501Z,24.77
2023-04-21T07:18:34.622Z,14.15
2023-04-21T07:21:01.935Z,14.68
2023-04-21T07:23:29.347Z,23.63
2023-04-21T07:25:56.589Z,17.15
2023-04-21T07:28:23.870Z,14.73
2023-04-21T07:30:51.651Z,17.92
2023-04-21T07:33:19.503Z,19.13
2023-04-21T07:35:46.747Z,11.90
2023-04-21T07:38:14.025Z,16.00
2023-04-21T07:40:41.304Z,14.30
2023-04-21T07:43:08.670Z,22.33
2023-04-21T07:45:35.922Z,20.08
2023-04-21T07:48:03.412Z,18.67
2023-04-21T07:50:30.870Z,17.90
2023-04-21T07:52:58.533Z,20.13
2023-04-21T07:55:25.780Z,15.82
2023-04-21T07:57:53.000Z,25.75
2023-04-21T08:00:20.574Z,17.98
2023-04-21T08:02:48.139Z,14.98
2023-04-21T08:05:15.791Z,10.27
2023-04-21T08:07:43.612Z,15.63
2023-04-21T08:10:11.472Z,16.27
2023-04-21T08:12:39.619Z,17.08
2023-04-21T08:15:08.476Z,17.50
2023-04-21T08:17:36.576Z,17.95
2023-04-21T08:20:04.297Z,8.23
2023-04-21T08:22:32.060Z,11.07
2023-04-21T08:24:59.323Z,15.43
2023-04-21T08:27:26.631Z,12.60
2023-04-21T08:29:54.001Z,15.45
2023-04-21T08:32:23.649Z,17.25
2023-04-21T08:34:51.935Z,18.23
2023-04-21T08:37:19.619Z,15.30
2023-04-21T08:39:47.268Z,16.13
2023-04-21T08:42:15.238Z,14.60
2023-04-21T08:44:42.879Z,14.55
2023-04-21T08:47:10.663Z,10.65
2023-04-21T08:49:38.630Z,19.52
2023-04-21T08:52:06.139Z,10.63
2023-04-21T08:54:34.292Z,9.10
2023-04-21T08:57:14.210Z,10.02
2023-04-21T08:59:43.257Z,18.50
2023-04-21T09:02:17.618Z,15.27
2023-04-21T09:04:46.995Z,11.25
2023-04-21T09:07:36.405Z,16.90
2023-04-21T09:10:04.312Z,18.45
2023-04-21T09:12:33.077Z,12.88
2023-04-21T09:15:01.146Z,13.60
2023-04-21T09:17:32.669Z,13.98
2023-04-21T09:20:20.880Z,13.45
2023-04-21T09:22:49.687Z,13.20
2023-04-21T09:25:17.915Z,12.25
2023-04-21T09:27:46.425Z,24.30
2023-04-21T09:30:13.959Z,16.42
2023-04-21T09:32:41.719Z,10.95
2023-04-21T09:35:12.245Z,17.92
2023-04-21T09:37:39.769Z,11.47
2023-04-21T09:40:07.324Z,19.35
2023-04-21T09:42:39.239Z,13.93
2023-04-21T09:45:29.032Z,16.42
2023-04-21T09:47:59.579Z,16.75
2023-04-21T09:51:01.824Z,10.27
2023-04-21T09:53:16.970Z,14.48
2023-04-21T09:55:44.956Z,13.73
2023-04-21T09:58:12.217Z,9.75
2023-04-21T10:00:39.929Z,14.73
2023-04-21T10:03:10.538Z,16.30
2023-04-21T10:08:12.072Z,16.20
2023-04-21T10:10:39.423Z,7.38
2023-04-21T10:13:06.929Z,15.90
2023-04-21T10:15:40.248Z,16.77
2023-04-21T10:18:15.371Z,23.85
2023-04-21T10:21:06.192Z,18.83
2023-04-21T10:23:43.791Z,16.27
2023-04-21T10:26:17.456Z,17.42
2023-04-21T10:28:45.666Z,13.77
2023-04-21T10:31:39.103Z,17.38
2023-04-21T10:34:09.210Z,14.23
2023-04-21T10:36:48.757Z,13.23
2023-04-21T10:39:38.060Z,17.17
2023-04-21T10:42:21.101Z,15.85
2023-04-21T10:44:57.694Z,11.55
2023-04-21T10:47:38.460Z,7.82
2023-04-21T10:50:26.105Z,18.73
2023-04-21T10:53:11.404Z,13.32
2023-04-21T10:55:38.862Z,19.02
2023-04-21T10:58:09.099Z,15.80
2023-04-21T11:00:38.633Z,6.90
2023-04-21T11:03:07.359Z,13.23
2023-04-21T11:05:38.595Z,16.60
2023-04-21T11:08:14.718Z,7.30
2023-04-21T11:10:55.884Z,12.15
2023-04-21T11:13:26.102Z,12.32
2023-04-21T11:16:00.622Z,12.50
2023-04-21T11:18:43.841Z,7.10
2023-04-21T11:21:13.666Z,12.27
2023-04-21T11:23:42.261Z,9.90
2023-04-21T11:26:09.538Z,6.45
2023-04-21T11:28:36.842Z,6.93
2023-04-21T11:31:04.976Z,13.82
2023-04-21T11:33:37.988Z,11.20
2023-04-21T11:36:07.545Z,11.55
2023-04-21T11:38:41.193Z,8.82
2023-04-21T11:41:09.997Z,7.82
2023-04-21T11:43:37.677Z,7.32
2023-04-21T11:46:33.468Z,9.63
2023-04-21T11:49:01.035Z,9.95
2023-04-21T11:51:47.612Z,4.25
2023-04-21T11:54:14.908Z,5.90
2023-04-21T11:56:43.581Z,5.22
2023-04-21T11:59:11.993Z,6.78
2023-04-21T12:01:48.920Z,10.50
2023-04-21T12:04:17.667Z,4.13
2023-04-21T12:06:46.159Z,3.85
2023-04-21T12:09:17.912Z,6.85
2023-04-21T12:11:49.686Z,5.28
2023-04-21T12:14:21.550Z,2.95
2023-04-21T12:16:50.633Z,4.68
2023-04-21T12:19:41.222Z,7.00
2023-04-21T12:22:09.459Z,8.10
2023-04-21T12:24:37.045Z,5.22
2023-04-21T12:27:04.591Z,4.72
2023-04-21T12:29:32.324Z,5.25
2023-04-21T12:31:59.738Z,7.63
2023-04-21T12:34:27.044Z,10.10
2023-04-21T12:36:54.412Z,4.93
2023-04-21T12:39:22.205Z,4.82
2023-04-21T12:41:49.459Z,11.20
2023-04-21T12:44:16.852Z,3.28
2023-04-21T12:46:44.177Z,7.80
2023-04-21T12:49:11.742Z,3.17
2023-04-21T12:51:38.983Z,4.35
2023-04-21T12:54:06.341Z,4.63
2023-04-21T12:56:33.599Z,9.60
2023-04-21T12:59:00.843Z,7.22
2023-04-21T13:01:28.118Z,7.72
2023-04-21T13:03:55.503Z,9.40
2023-04-21T13:06:22.953Z,5.97
2023-04-21T13:08:50.222Z,6.97
2023-04-21T13:11:17.477Z,5.78
2023-04-21T13:13:44.708Z,6.63
2023-04-21T13:16:12.019Z,5.35
2023-04-21T13:18:39.909Z,9.55
2023-04-21T13:21:07.198Z,10.50
2023-04-21T13:23:34.654Z,5.15
2023-04-21T13:26:02.067Z,6.90
2023-04-21T13:28:30.038Z,4.80
2023-04-21T13:30:57.708Z,8.63
2023-04-21T13:33:24.957Z,9.35
2023-04-21T13:35:52.332Z,3.83
2023-04-21T13:38:20.778Z,12.88
2023-04-21T13:40:49.083Z,7.72
2023-04-21T13:43:16.604Z,11.57
2023-04-21T13:45:43.862Z,4.55
2023-04-21T13:48:11.340Z,8.10
2023-04-21T13:50:39.211Z,3.58
2023-04-21T13:53:06.615Z,10.60
2023-04-21T13:55:34.168Z,5.90
2023-04-21T13:58:01.823Z,5.60
2023-04-21T14:00:29.245Z,6.95
2023-04-21T14:02:56.727Z,11.90
2023-04-21T14:05:24.412Z,6.57
2023-04-21T14:07:51.859Z,13.73
2023-04-21T14:10:19.325Z,6.50
2023-04-21T14:12:48.051Z,6.97
2023-04-21T14:15:15.500Z,7.03
2023-04-21T14:17:42.893Z,8.70
2023-04-21T14:20:10.919Z,4.93
2023-04-21T14:22:38.332Z,5.40
2023-04-21T14:25:05.834Z,4.35
2023-04-21T14:27:33.151Z,7.65
2023-04-21T14:30:00.511Z,8.48
2023-04-21T14:32:28.150Z,6.32
2023-04-21T14:34:58.529Z,5.05
2023-04-21T14:37:26.273Z,8.60
2023-04-21T14:39:53.671Z,4.95
2023-04-21T14:42:21.080Z,4.60
2023-04-21T14:44:48.460Z,12.10
2023-04-21T14:47:15.839Z,5.28
2023-04-21T14:49:43.515Z,4.90
2023-04-21T14:52:10.768Z,5.38
2023-04-21T14:54:40.213Z,9.65
2023-04-21T14:57:19.873Z,7.40
2023-04-21T14:59:52.027Z,3.33
2023-04-21T15:02:20.423Z,5.05
2023-04-21T15:04:47.954Z,9.52
2023-04-21T15:07:17.151Z,6.50
2023-04-21T15:09:48.558Z,10.25
2023-04-21T15:12:15.898Z,7.20
2023-04-21T15:14:43.230Z,5.68
2023-04-21T15:17:10.707Z,8.80
2023-04-21T15:19:38.284Z,5.10
2023-04-21T15:22:05.615Z,7.60
2023-04-21T15:24:32.884Z,16.83
2023-04-21T15:27:00.177Z,8.48
2023-04-21T15:29:27.409Z,6.10
2023-04-21T15:31:54.701Z,6.15
2023-04-21T15:34:22.016Z,8.00
2023-04-21T15:36:49.257Z,9.00
2023-04-21T15:39:16.571Z,9.25
2023-04-21T15:41:43.877Z,7.82
2023-04-21T15:44:11.166Z,11.07
2023-04-21T15:46:38.684Z,11.48
2023-04-21T15:49:06.028Z,12.20
2023-04-21T15:51:34.921Z,9.55
2023-04-21T15:54:02.246Z,6.57
2023-04-21T15:56:29.771Z,6.30
2023-04-21T15:58:57.210Z,5.85
2023-04-21T16:01:24.688Z,10.07
2023-04-21T16:03:52.323Z,18.10
2023-04-21T16:06:21.450Z,9.95
2023-04-21T16:08:48.885Z,13.48
2023-04-21T16:11:16.165Z,16.83
2023-04-21T16:13:43.751Z,11.38
2023-04-21T16:16:11.345Z,10.25
2023-04-21T16:18:38.655Z,14.27
2023-04-21T16:21:06.684Z,13.18
2023-04-21T16:23:33.979Z,8.02
2023-04-21T16:26:02.226Z,5.45
2023-04-21T16:28:29.732Z,6.18
2023-04-21T16:30:57.058Z,7.65
2023-04-21T16:33:24.416Z,5.80
2023-04-21T16:35:56.100Z,8.45
2023-04-21T16:38:24.899Z,7.22
2023-04-21T16:40:52.251Z,8.50
2023-04-21T16:43:19.513Z,8.23
2023-04-21T16:45:46.971Z,3.70
2023-04-21T16:48:14.767Z,4.68
2023-04-21T16:50:42.324Z,8.93
2023-04-21T16:53:09.509Z,8.00
2023-04-21T16:55:37.261Z,5.18
2023-04-21T16:58:04.510Z,8.25
2023-04-21T17:00:31.939Z,7.13
2023-04-21T17:02:59.532Z,7.18
2023-04-21T17:05:27.316Z,6.68
2023-04-21T17:07:54.939Z,9.77
2023-04-21T17:10:22.284Z,4.85
2023-04-21T17:12:50.298Z,9.82
2023-04-21T17:15:17.578Z,9.10
2023-04-21T17:17:47.128Z,8.05
2023-04-21T17:20:14.585Z,6.00
2023-04-21T17:22:41.985Z,9.55
2023-04-21T17:25:09.788Z,9.10
2023-04-21T17:27:38.046Z,6.25
2023-04-21T17:30:05.890Z,12.07
2023-04-21T17:32:34.309Z,7.43
2023-04-21T17:35:02.563Z,8.45
2023-04-21T17:37:30.470Z,6.47
2023-04-21T17:40:00.356Z,6.68
2023-04-21T17:42:29.449Z,3.55
2023-04-21T17:44:56.773Z,7.38
2023-04-21T17:47:24.217Z,9.10
2023-04-21T17:49:51.880Z,7.43
2023-04-21T17:52:19.183Z,9.55
2023-04-21T17:54:46.600Z,10.10
2023-04-21T17:57:13.822Z,5.55
2023-04-21T17:59:41.122Z,11.45
2023-04-21T18:02:08.616Z,6.00
2023-04-21T18:04:36.870Z,11.63
2023-04-21T18:07:04.500Z,7.80
2023-04-21T18:09:32.169Z,10.52
2023-04-21T18:11:59.448Z,6.75
2023-04-21T18:14:27.091Z,9.65
2023-04-21T18:16:54.640Z,8.07
2023-04-21T18:19:21.946Z,11.80
2023-04-21T18:21:49.163Z,12.43
2023-04-21T18:24:16.458Z,13.05
2023-04-21T18:26:43.813Z,9.68
2023-04-21T18:29:11.092Z,9.85
2023-04-21T18:31:38.440Z,17.60
2023-04-21T18:34:06.198Z,8.70
2023-04-21T18:36:34.498Z,8.98
2023-04-21T18:39:03.275Z,6.57
2023-04-21T18:41:30.622Z,7.05
2023-04-21T18:43:57.897Z,7.05
2023-04-21T18:46:25.199Z,12.10
2023-04-21T18:48:53.284Z,9.57
2023-04-21T18:51:20.652Z,10.55
2023-04-21T18:53:47.958Z,8.73
2023-04-21T18:56:15.692Z,10.93
2023-04-21T18:58:42.925Z,9.23
2023-04-21T19:01:10.266Z,9.07
2023-04-21T19:03:37.771Z,9.27
2023-04-21T19:06:05.881Z,9.63
2023-04-21T19:08:42.088Z,12.10
2023-04-21T19:11:11.474Z,10.65
2023-04-21T19:13:38.909Z,9.05
2023-04-21T19:16:08.361Z,9.20
2023-04-21T19:18:36.043Z,8.50
2023-04-21T19:21:07.164Z,10.60
2023-04-21T19:23:34.744Z,8.68
2023-04-21T19:26:05.032Z,10.68
2023-04-21T19:28:32.538Z,9.73
2023-04-21T19:30:59.836Z,9.63
2023-04-21T19:33:27.192Z,8.90
2023-04-21T19:35:54.490Z,11.35
2023-04-21T19:38:22.290Z,12.13
2023-04-21T19:40:49.820Z,17.13
2023-04-21T19:43:19.384Z,16.10
2023-04-21T19:45:47.451Z,16.02
2023-04-21T19:48:14.934Z,19.10
2023-04-21T19:50:42.531Z,12.40
2023-04-21T19:53:14.593Z,12.75
2023-04-21T19:55:42.560Z,11.63
2023-04-21T19:58:10.038Z,9.43
2023-04-21T20:00:37.424Z,14.48
2023-04-21T20:03:06.604Z,11.73
2023-04-21T20:05:34.002Z,12.50
2023-04-21T20:08:01.545Z,12.10
2023-04-21T20:10:28.992Z,15.05
2023-04-21T20:12:56.488Z,12.27
2023-04-21T20:15:23.856Z,13.32
2023-04-21T20:17:51.143Z,10.43
2023-04-21T20:20:18.468Z,15.80
2023-04-21T20:22:45.985Z,7.38
2023-04-21T20:25:13.501Z,8.35
2023-04-21T20:27:41.120Z,5.65
2023-04-21T20:30:08.704Z,7.25
2023-04-21T20:32:36.728Z,6.13
2023-04-21T20:35:04.041Z,8.48
2023-04-21T20:37:33.568Z,9.07
2023-04-21T20:40:08.035Z,8.82
2023-04-21T20:42:35.445Z,5.68
2023-04-21T20:45:03.560Z,11.00
2023-04-21T20:47:30.981Z,6.18
2023-04-21T20:49:59.008Z,7.18
2023-04-21T20:52:26.362Z,10.30
2023-04-21T20:54:53.574Z,5.78
2023-04-21T20:57:21.127Z,7.78
2023-04-21T20:59:48.353Z,5.22
2023-04-21T21:02:15.639Z,8.95
2023-04-21T21:04:43.139Z,8.27
2023-04-21T21:07:10.591Z,5.43
2023-04-21T21:09:38.414Z,6.13
2023-04-21T21:12:05.969Z,9.85
2023-04-21T21:14:34.379Z,11.85
2023-04-21T21:17:02.892Z,5.90
2023-04-21T21:19:30.609Z,8.88
2023-04-21T21:21:57.861Z,9.15
2023-04-21T21:24:26.470Z,8.52
2023-04-21T21:26:53.826Z,8.25
2023-04-21T21:29:21.068Z,6.32
2023-04-21T21:31:48.418Z,15.27
2023-04-21T21:34:15.879Z,7.60
2023-04-21T21:36:43.149Z,7.28
2023-04-21T21:39:11.395Z,6.90
2023-04-21T21:41:38.809Z,11.38
2023-04-21T21:44:06.884Z,4.45
2023-04-21T21:46:34.218Z,9.20
2023-04-21T21:49:01.454Z,7.03
2023-04-21T21:51:28.965Z,8.40
2023-04-21T21:53:56.649Z,11.77
2023-04-21T21:56:25.709Z,13.45
2023-04-21T21:58:53.333Z,9.27
2023-04-21T22:01:20.785Z,9.82
2023-04-21T22:03:48.632Z,10.30
2023-04-21T22:06:17.341Z,10.13
2023-04-21T22:08:45.692Z,10.48
2023-04-21T22:11:13.037Z,4.93
2023-04-21T22:13:40.719Z,12.77
2023-04-21T22:16:08.576Z,7.70
2023-04-21T22:18:36.515Z,12.55
2023-04-21T22:21:04.140Z,9.98
2023-04-21T22:23:32.036Z,6.72
2023-04-21T22:25:59.252Z,7.70
2023-04-21T22:28:26.540Z,11.35
2023-04-21T22:30:54.218Z,8.60
2023-04-21T22:33:21.456Z,6.57
2023-04-21T22:35:48.653Z,11.27
2023-04-21T22:38:15.965Z,9.32
2023-04-21T22:40:43.226Z,6.38
2023-04-21T22:43:10.528Z,10.63
2023-04-21T22:45:38.116Z,10.80
2023-04-21T22:48:06.037Z,12.05
2023-04-21T22:50:34.534Z,16.17
2023-04-21T22:53:01.752Z,12.82
2023-04-21T22:55:29.318Z,9.50
2023-04-21T22:57:56.515Z,9.90
2023-04-21T23:00:23.895Z,7.03
2023-04-21T23:02:51.339Z,8.55
2023-04-21T23:05:18.803Z,7.78
2023-04-21T23:07:46.041Z,13.00
2023-04-21T23:10:14.322Z,9.80
2023-04-21T23:12:41.625Z,6.38
2023-04-21T23:15:09.143Z,13.52
2023-04-21T23:17:36.858Z,8.05
2023-04-21T23:20:05.588Z,11.32
2023-04-21T23:22:33.105Z,11.20
2023-04-21T23:25:00.621Z,13.25
2023-04-21T23:27:27.839Z,17.42
2023-04-21T23:29:55.553Z,10.65
2023-04-21T23:32:22.812Z,9.55
2023-04-21T23:34:50.187Z,14.27
2023-04-21T23:37:17.410Z,14.95
2023-04-21T23:39:44.685Z,12.88
2023-04-21T23:42:11.966Z,13.32
2023-04-21T23:44:40.411Z,9.98
2023-04-21T23:47:07.696Z,11.40
2023-04-21T23:49:35.913Z,11.27
2023-04-21T23:52:03.301Z,8.00
2023-04-21T23:54:30.637Z,12.80
2023-04-21T23:56:58.456Z,11.40
2023-04-21T23:59:25.873Z,9.05
